Time;durP1;ratioP1;P1;durP2;ratioP2;P2;SDS_P1;SDS_P2;PMS_P1;PMS_P2;Temp;Humidity;BMP_temperature;BMP_pressure;BME280_temperature;BME280_humidity;BME280_pressure;Samples;Min_cycle;Max_cycle;Signal;HPM_P1;HPM_P2
2021/07/31 00:00:04;;;;;;;13.93;12.77;;;17.50;88.20;;;;;;5032490;29;20053;-72
2021/07/31 00:02:42;;;;;;;13.57;12.38;;;17.40;89.20;;;;;;5033238;29;20061;-74
2021/07/31 00:05:15;;;;;;;14.27;13.23;;;17.40;88.90;;;;;;5030708;29;20059;-74
2021/07/31 00:07:46;;;;;;;14.10;12.90;;;17.30;89.70;;;;;;5035176;29;20049;-74
2021/07/31 00:10:18;;;;;;;13.45;12.45;;;17.40;89.40;;;;;;5034224;29;20102;-74
2021/07/31 00:12:50;;;;;;;13.07;11.98;;;17.40;89.40;;;;;;5036343;29;20037;-73
2021/07/31 00:15:23;;;;;;;13.80;12.70;;;17.30;89.20;;;;;;5020566;29;20073;-74
2021/07/31 00:17:55;;;;;;;13.98;12.77;;;17.20;89.20;;;;;;5037628;29;20068;-73
2021/07/31 00:20:26;;;;;;;13.63;12.52;;;17.20;89.50;;;;;;5035471;29;20152;-74
2021/07/31 00:22:58;;;;;;;13.63;12.63;;;17.20;89.60;;;;;;5036780;29;20105;-74
2021/07/31 00:25:31;;;;;;;13.55;12.55;;;17.10;89.70;;;;;;5033011;29;20069;-74
2021/07/31 00:28:03;;;;;;;13.48;12.32;;;17.20;89.50;;;;;;5034642;29;20113;-73
2021/07/31 00:30:35;;;;;;;13.60;12.57;;;17.10;89.50;;;;;;5030612;29;20068;-74
2021/07/31 00:33:07;;;;;;;13.70;12.57;;;17.10;89.60;;;;;;5036149;29;20048;-73
2021/07/31 00:35:39;;;;;;;13.48;12.38;;;17.10;89.90;;;;;;5040036;29;20049;-73
2021/07/31 00:38:11;;;;;;;13.13;12.13;;;17.10;89.80;;;;;;5035934;29;20057;-73
2021/07/31 00:40:43;;;;;;;13.77;12.68;;;17.10;90.20;;;;;;5032671;29;20123;-72
2021/07/31 00:43:15;;;;;;;13.57;12.43;;;17.10;89.60;;;;;;5036546;29;20081;-73
2021/07/31 00:45:49;;;;;;;14.45;13.15;;;17.10;89.30;;;;;;5034604;29;20052;-73
2021/07/31 00:48:21;;;;;;;13.90;12.70;;;17.10;89.70;;;;;;5039130;29;20061;-73
2021/07/31 00:50:53;;;;;;;13.98;12.88;;;17.10;89.70;;;;;;5034255;29;20056;-73
2021/07/31 00:53:26;;;;;;;13.63;12.55;;;17.10;90.60;;;;;;5019129;29;20053;-73
2021/07/31 00:55:58;;;;;;;13.63;12.45;;;17.10;90.10;;;;;;5033255;29;20049;-72
2021/07/31 00:58:31;;;;;;;14.25;13.15;;;17.10;89.70;;;;;;5035752;29;20056;-73
2021/07/31 01:01:07;;;;;;;13.93;12.63;;;17.20;89.90;;;;;;5030733;29;20427;-74
2021/07/31 01:03:40;;;;;;;13.88;12.73;;;17.20;89.90;;;;;;5037016;29;20055;-73
2021/07/31 01:06:12;;;;;;;14.30;13.18;;;17.10;90.00;;;;;;5033794;29;20439;-74
2021/07/31 01:08:44;;;;;;;14.07;13.07;;;17.20;90.10;;;;;;5019392;29;20049;-73
2021/07/31 01:11:22;;;;;;;13.80;12.80;;;17.20;90.20;;;;;;5012091;29;20846;-74
2021/07/31 01:13:58;;;;;;;14.55;13.25;;;17.10;90.40;;;;;;5036276;29;20053;-74
2021/07/31 01:16:32;;;;;;;13.77;12.57;;;17.10;90.70;;;;;;5020579;29;20168;-74
2021/07/31 01:19:05;;;;;;;13.65;12.55;;;17.00;90.10;;;;;;5022334;29;20053;-74
2021/07/31 01:21:44;;;;;;;13.98;12.98;;;17.00;89.90;;;;;;5027914;29;20113;-73
2021/07/31 01:24:31;;;;;;;13.68;12.68;;;17.00;89.80;;;;;;5035730;29;20045;-74
2021/07/31 01:27:04;;;;;;;13.27;12.27;;;17.10;89.80;;;;;;5035613;29;20057;-73
2021/07/31 01:29:36;;;;;;;14.60;13.50;;;17.00;90.10;;;;;;5042683;29;20500;-73
2021/07/31 01:32:08;;;;;;;13.88;12.77;;;17.10;89.80;;;;;;5037154;29;20069;-74
2021/07/31 01:34:40;;;;;;;13.73;12.63;;;17.10;89.50;;;;;;5035405;29;20476;-74
2021/07/31 01:37:13;;;;;;;14.23;13.13;;;17.20;89.50;;;;;;5034626;29;20072;-74
2021/07/31 01:39:47;;;;;;;14.15;13.05;;;17.20;90.00;;;;;;5051295;29;20045;-74
2021/07/31 01:42:19;;;;;;;14.40;13.20;;;17.20;89.70;;;;;;5035696;29;20411;-74
2021/07/31 01:44:53;;;;;;;13.95;12.95;;;17.20;89.90;;;;;;5039047;29;20522;-74
2021/07/31 01:47:25;;;;;;;14.93;13.70;;;17.20;90.00;;;;;;5009054;29;20803;-74
2021/07/31 01:49:57;;;;;;;14.75;13.48;;;17.20;89.50;;;;;;5031371;29;20040;-74
2021/07/31 01:52:29;;;;;;;14.32;13.27;;;17.20;89.80;;;;;;5030601;29;20639;-74
2021/07/31 01:55:03;;;;;;;14.20;13.10;;;17.20;90.00;;;;;;5034721;29;20074;-72
2021/07/31 01:57:39;;;;;;;14.38;13.27;;;17.20;90.10;;;;;;5035458;29;20743;-73
2021/07/31 02:00:40;;;;;;;14.65;13.55;;;17.10;90.00;;;;;;5036514;29;20560;-73
2021/07/31 02:03:16;;;;;;;14.77;13.68;;;17.10;89.80;;;;;;5034735;29;20159;-73
2021/07/31 02:06:08;;;;;;;14.98;13.88;;;17.10;89.60;;;;;;5032868;29;20048;-72
2021/07/31 02:08:41;;;;;;;15.05;13.85;;;17.10;89.70;;;;;;5035054;29;20053;-73
2021/07/31 02:11:13;;;;;;;14.95;13.85;;;17.10;89.90;;;;;;5038005;29;20076;-72
2021/07/31 02:13:46;;;;;;;14.98;13.88;;;17.20;89.30;;;;;;5020162;29;20079;-73
2021/07/31 02:16:26;;;;;;;14.70;13.60;;;17.10;89.40;;;;;;5031311;29;20473;-73
2021/07/31 02:19:00;;;;;;;14.35;13.13;;;17.10;89.20;;;;;;5032410;29;20211;-73
2021/07/31 02:21:42;;;;;;;15.60;14.38;;;17.10;89.40;;;;;;5032491;29;20052;-73
2021/07/31 02:24:32;;;;;;;14.95;13.85;;;17.20;89.40;;;;;;5038090;29;20053;-74
2021/07/31 02:27:13;;;;;;;15.98;14.77;;;17.20;89.00;;;;;;5032962;29;20053;-72
2021/07/31 02:30:06;;;;;;;15.07;13.88;;;17.20;89.00;;;;;;5032249;29;20056;-74
2021/07/31 02:32:38;;;;;;;15.18;13.95;;;17.20;88.80;;;;;;5037199;29;20061;-74
2021/07/31 02:35:12;;;;;;;15.48;14.27;;;17.20;88.90;;;;;;5035638;29;20053;-73
2021/07/31 02:38:06;;;;;;;15.02;13.93;;;17.20;89.00;;;;;;5031985;29;20052;-73
2021/07/31 02:40:38;;;;;;;15.32;14.23;;;17.10;89.00;;;;;;5033379;29;20369;-73
2021/07/31 02:43:11;;;;;;;14.65;13.45;;;17.10;89.00;;;;;;5036796;29;20045;-73
2021/07/31 02:45:43;;;;;;;14.90;13.80;;;17.10;88.90;;;;;;5035637;29;20129;-73
2021/07/31 02:48:16;;;;;;;14.95;13.75;;;17.10;88.60;;;;;;5019747;29;20060;-73
2021/07/31 02:50:48;;;;;;;15.32;14.23;;;17.10;88.90;;;;;;5033081;29;20049;-73
2021/07/31 02:53:32;;;;;;;15.73;14.52;;;17.10;88.90;;;;;;5018208;29;20049;-74
2021/07/31 02:56:05;;;;;;;15.70;14.50;;;17.00;88.80;;;;;;5030467;29;20060;-74
2021/07/31 02:58:38;;;;;;;15.32;14.02;;;17.00;88.70;;;;;;5035461;29;20140;-73
2021/07/31 03:01:10;;;;;;;14.20;13.20;;;16.90;88.70;;;;;;5018412;29;20623;-74
2021/07/31 03:03:43;;;;;;;14.45;13.25;;;16.90;88.70;;;;;;5029595;29;20152;-74
2021/07/31 03:06:16;;;;;;;14.65;13.55;;;16.90;88.90;;;;;;5036336;29;20137;-73
2021/07/31 03:08:49;;;;;;;14.68;13.48;;;16.80;89.00;;;;;;5035991;29;20080;-73
2021/07/31 03:11:25;;;;;;;15.60;14.30;;;16.80;89.10;;;;;;5019838;29;20132;-74
2021/07/31 03:13:57;;;;;;;15.15;13.95;;;16.80;88.90;;;;;;5039451;29;20052;-74
2021/07/31 03:16:34;;;;;;;14.63;13.43;;;16.80;88.90;;;;;;5036381;29;20045;-74
2021/07/31 03:19:09;;;;;;;14.75;13.63;;;16.80;88.70;;;;;;5033414;29;20045;-73
2021/07/31 03:21:46;;;;;;;14.65;13.55;;;16.80;88.50;;;;;;5016521;29;20060;-73
2021/07/31 03:24:29;;;;;;;15.82;14.43;;;16.80;88.90;;;;;;5035026;29;20068;-74
2021/07/31 03:27:01;;;;;;;15.10;13.88;;;16.80;88.90;;;;;;5033404;29;20123;-74
2021/07/31 03:29:53;;;;;;;15.07;13.98;;;16.70;88.80;;;;;;5031937;29;20052;-74
2021/07/31 03:32:26;;;;;;;15.15;14.05;;;16.70;88.80;;;;;;5035899;29;20041;-74
2021/07/31 03:35:00;;;;;;;14.85;13.75;;;16.70;89.10;;;;;;5020944;29;20048;-74
2021/07/31 03:37:37;;;;;;;15.27;14.07;;;16.60;89.00;;;;;;5033112;29;20474;-74
2021/07/31 03:40:10;;;;;;;14.98;13.80;;;16.60;88.90;;;;;;5038176;29;20053;-73
2021/07/31 03:42:42;;;;;;;15.43;14.07;;;16.60;88.80;;;;;;5037860;29;20058;-74
2021/07/31 03:45:14;;;;;;;14.80;13.68;;;16.50;89.40;;;;;;5035132;29;20161;-74
2021/07/31 03:47:46;;;;;;;14.50;13.35;;;16.50;89.30;;;;;;5035693;29;20088;-73
2021/07/31 03:50:18;;;;;;;15.20;14.02;;;16.50;89.30;;;;;;5018245;29;20051;-72
2021/07/31 03:53:03;;;;;;;14.75;13.65;;;16.50;89.20;;;;;;5033644;29;20088;-73
2021/07/31 03:55:39;;;;;;;15.23;14.13;;;16.50;88.80;;;;;;5033895;29;20045;-73
2021/07/31 03:58:11;;;;;;;14.95;13.68;;;16.50;89.00;;;;;;5035114;29;20040;-74
2021/07/31 04:00:43;;;;;;;15.30;14.00;;;16.50;89.50;;;;;;5032882;29;20048;-73
2021/07/31 04:03:16;;;;;;;14.52;13.43;;;16.50;89.70;;;;;;5019408;29;20072;-73
2021/07/31 04:05:50;;;;;;;15.55;14.20;;;16.50;89.30;;;;;;5019790;29;20133;-73
2021/07/31 04:08:45;;;;;;;15.07;13.93;;;16.50;89.10;;;;;;5033155;29;20045;-74
2021/07/31 04:11:36;;;;;;;14.90;13.80;;;16.50;89.30;;;;;;5032610;29;20527;-74
2021/07/31 04:14:26;;;;;;;15.02;13.82;;;16.50;89.60;;;;;;5032952;29;20140;-73
2021/07/31 04:17:27;;;;;;;14.50;13.40;;;16.40;89.30;;;;;;5032129;29;20680;-73
2021/07/31 04:20:00;;;;;;;14.40;13.30;;;16.40;89.90;;;;;;5032510;29;20051;-73
2021/07/31 04:22:33;;;;;;;14.75;13.60;;;16.40;89.50;;;;;;5044731;29;20048;-74
2021/07/31 04:25:06;;;;;;;15.02;13.90;;;16.40;89.80;;;;;;5034793;29;20817;-73
2021/07/31 04:27:38;;;;;;;14.77;13.50;;;16.40;89.80;;;;;;5035444;29;20791;-73
2021/07/31 04:30:11;;;;;;;14.98;13.82;;;16.50;89.70;;;;;;5031225;29;20132;-74
2021/07/31 04:32:42;;;;;;;15.88;14.57;;;16.40;89.40;;;;;;5030479;29;20133;-74
2021/07/31 04:35:14;;;;;;;15.15;14.05;;;16.50;89.70;;;;;;5034230;29;20499;-72
2021/07/31 04:37:46;;;;;;;15.75;14.32;;;16.50;89.90;;;;;;5032928;29;20045;-73
2021/07/31 04:40:18;;;;;;;15.10;13.90;;;16.50;90.00;;;;;;5035381;29;20113;-73
2021/07/31 04:42:50;;;;;;;14.95;13.85;;;16.50;90.20;;;;;;5033381;29;20048;-73
2021/07/31 04:45:22;;;;;;;15.13;13.90;;;16.50;90.20;;;;;;5033406;29;20077;-73
2021/07/31 04:47:54;;;;;;;14.90;13.70;;;16.50;90.00;;;;;;5039251;29;20559;-72
2021/07/31 04:50:26;;;;;;;15.07;13.68;;;16.50;89.90;;;;;;5039575;29;20060;-72
2021/07/31 04:52:58;;;;;;;14.95;13.85;;;16.60;90.50;;;;;;5034564;29;20049;-72
2021/07/31 04:55:30;;;;;;;14.23;13.15;;;16.60;90.40;;;;;;5036290;29;20053;-72
2021/07/31 04:58:02;;;;;;;14.93;13.73;;;16.60;90.70;;;;;;5040342;29;20133;-72
2021/07/31 05:00:34;;;;;;;16.02;14.82;;;16.60;91.00;;;;;;5038636;29;20048;-71
2021/07/31 05:03:06;;;;;;;15.68;14.48;;;16.60;90.80;;;;;;5038209;29;20072;-72
2021/07/31 05:05:38;;;;;;;16.40;15.00;;;16.70;90.80;;;;;;5040793;29;20499;-72
2021/07/31 05:08:11;;;;;;;15.88;14.68;;;16.60;90.50;;;;;;5043387;29;20084;-71
2021/07/31 05:10:45;;;;;;;15.88;14.65;;;16.70;90.40;;;;;;5040900;29;20064;-72
2021/07/31 05:13:17;;;;;;;15.80;14.70;;;16.70;90.60;;;;;;5038540;29;20048;-72
2021/07/31 05:15:49;;;;;;;16.20;14.98;;;16.70;90.40;;;;;;5036662;29;20049;-72
2021/07/31 05:18:21;;;;;;;16.15;14.77;;;16.70;90.50;;;;;;5040169;29;20052;-72
2021/07/31 05:20:53;;;;;;;16.15;14.85;;;16.80;90.70;;;;;;5037180;29;20101;-71
2021/07/31 05:23:25;;;;;;;16.58;15.27;;;16.70;90.50;;;;;;5037457;29;20041;-72
2021/07/31 05:25:57;;;;;;;15.80;14.60;;;16.80;90.70;;;;;;5037445;29;20053;-72
2021/07/31 05:28:29;;;;;;;15.50;14.30;;;16.80;91.20;;;;;;5041822;29;20049;-72
2021/07/31 05:31:01;;;;;;;16.60;15.30;;;16.80;90.70;;;;;;5039608;29;20049;-72
2021/07/31 05:33:33;;;;;;;15.07;13.98;;;16.80;90.90;;;;;;5037926;29;20717;-72
2021/07/31 05:36:09;;;;;;;15.95;14.75;;;16.80;90.40;;;;;;5037563;29;20058;-71
2021/07/31 05:38:42;;;;;;;16.15;14.95;;;16.90;90.40;;;;;;5040484;29;20053;-73
2021/07/31 05:41:16;;;;;;;15.75;14.60;;;16.90;90.40;;;;;;5037870;29;20052;-73
2021/07/31 05:43:48;;;;;;;15.48;14.30;;;16.90;90.80;;;;;;5039241;29;20057;-73
2021/07/31 05:46:20;;;;;;;15.90;14.60;;;17.00;90.30;;;;;;5036117;29;20773;-73
2021/07/31 05:48:52;;;;;;;15.80;14.60;;;17.00;90.50;;;;;;5040821;29;20048;-72
2021/07/31 05:51:25;;;;;;;16.05;14.75;;;17.00;90.00;;;;;;5039106;29;20096;-73
2021/07/31 05:53:56;;;;;;;17.35;15.95;;;17.10;90.70;;;;;;5034705;29;20128;-72
2021/07/31 05:56:28;;;;;;;16.38;15.07;;;17.10;90.40;;;;;;5036708;29;20132;-73
2021/07/31 05:59:00;;;;;;;15.82;14.50;;;17.10;90.50;;;;;;5041442;29;20038;-73
2021/07/31 06:01:35;;;;;;;15.43;14.23;;;17.10;91.20;;;;;;5036289;29;20570;-73
2021/07/31 06:04:07;;;;;;;15.82;14.63;;;17.10;91.00;;;;;;5039975;29;20930;-73
2021/07/31 06:06:39;;;;;;;15.60;14.50;;;17.10;90.60;;;;;;5033283;29;20104;-73
2021/07/31 06:09:11;;;;;;;15.48;14.27;;;17.20;90.60;;;;;;5016864;29;20068;-72
2021/07/31 06:11:43;;;;;;;16.05;14.75;;;17.20;90.10;;;;;;5032054;29;20144;-73
2021/07/31 06:14:15;;;;;;;16.40;15.00;;;17.30;90.80;;;;;;5037875;29;20037;-73
2021/07/31 06:16:47;;;;;;;15.73;14.55;;;17.30;90.60;;;;;;5034298;29;20073;-74
2021/07/31 06:19:20;;;;;;;15.63;14.43;;;17.30;90.10;;;;;;5023697;29;20102;-73
2021/07/31 06:21:52;;;;;;;16.20;14.90;;;17.40;90.30;;;;;;5035089;29;20136;-74
2021/07/31 06:24:25;;;;;;;15.90;14.60;;;17.40;89.80;;;;;;5036896;29;20427;-74
2021/07/31 06:26:57;;;;;;;15.45;14.35;;;17.40;89.80;;;;;;5038907;29;20162;-74
2021/07/31 06:29:29;;;;;;;15.35;14.25;;;17.50;90.00;;;;;;5040792;29;20058;-74
2021/07/31 06:32:02;;;;;;;15.32;14.13;;;17.50;89.30;;;;;;5037785;29;20045;-74
2021/07/31 06:34:34;;;;;;;15.25;13.98;;;17.50;89.30;;;;;;5038989;29;20155;-74
2021/07/31 06:37:06;;;;;;;15.02;13.93;;;17.50;89.50;;;;;;5033251;29;20128;-74
2021/07/31 06:39:38;;;;;;;15.40;14.20;;;17.50;89.10;;;;;;5034254;29;20045;-74
2021/07/31 06:42:13;;;;;;;15.13;13.98;;;17.50;89.70;;;;;;5039293;29;20121;-74
2021/07/31 06:44:44;;;;;;;16.17;14.93;;;17.60;89.50;;;;;;5020952;29;20049;-74
2021/07/31 06:47:16;;;;;;;16.17;14.98;;;17.60;89.70;;;;;;5037535;29;20088;-74
2021/07/31 06:49:48;;;;;;;15.27;14.18;;;17.60;89.50;;;;;;5038309;29;20052;-74
2021/07/31 06:52:20;;;;;;;15.18;14.07;;;17.60;89.80;;;;;;5035606;29;20049;-74
2021/07/31 06:54:52;;;;;;;15.80;14.45;;;17.60;89.50;;;;;;5040623;29;20052;-74
2021/07/31 06:57:24;;;;;;;16.13;14.90;;;17.60;89.40;;;;;;5036269;29;20052;-74
2021/07/31 06:59:56;;;;;;;16.33;15.13;;;17.60;89.90;;;;;;5038664;29;20486;-73
2021/07/31 07:02:27;;;;;;;16.13;14.93;;;17.60;89.80;;;;;;5037803;29;20797;-74
2021/07/31 07:05:01;;;;;;;15.77;14.50;;;17.70;89.70;;;;;;5035593;29;20049;-74
2021/07/31 07:07:33;;;;;;;16.63;15.43;;;17.70;89.60;;;;;;5038049;29;20117;-74
2021/07/31 07:10:07;;;;;;;16.27;15.07;;;17.70;89.80;;;;;;5034057;29;20132;-74
2021/07/31 07:12:39;;;;;;;15.73;14.52;;;17.70;89.70;;;;;;5034961;29;20049;-74
2021/07/31 07:15:11;;;;;;;15.27;14.18;;;17.70;89.50;;;;;;5036613;29;20105;-73
2021/07/31 07:17:42;;;;;;;16.13;14.82;;;17.80;90.00;;;;;;5036905;29;20069;-74
2021/07/31 07:20:14;;;;;;;16.40;15.20;;;17.80;89.60;;;;;;5034784;29;20147;-74
2021/07/31 07:22:46;;;;;;;16.42;15.23;;;17.80;89.40;;;;;;5035343;29;20080;-74
2021/07/31 07:25:19;;;;;;;16.88;15.68;;;17.80;89.50;;;;;;5037844;29;20910;-74
2021/07/31 07:27:51;;;;;;;16.55;15.35;;;17.80;89.90;;;;;;5034408;29;20115;-74
2021/07/31 07:30:22;;;;;;;16.20;14.70;;;17.80;89.20;;;;;;5036086;29;20045;-74
2021/07/31 07:32:54;;;;;;;15.98;14.77;;;17.80;89.20;;;;;;5036151;29;20106;-74
2021/07/31 07:35:26;;;;;;;16.67;15.38;;;17.80;89.10;;;;;;5021593;29;20515;-74
2021/07/31 07:37:58;;;;;;;15.68;14.57;;;17.90;89.30;;;;;;5038036;29;20048;-73
2021/07/31 07:40:31;;;;;;;16.08;14.88;;;17.90;89.10;;;;;;5034319;29;20136;-73
2021/07/31 07:43:03;;;;;;;15.75;14.45;;;17.90;89.20;;;;;;5035315;29;20124;-73
2021/07/31 07:45:35;;;;;;;16.15;14.95;;;17.90;89.20;;;;;;5034942;29;20056;-73
2021/07/31 07:48:07;;;;;;;16.55;15.25;;;18.00;89.00;;;;;;5036560;29;20056;-73
2021/07/31 07:50:39;;;;;;;17.27;15.98;;;18.00;89.10;;;;;;5034526;29;20056;-73
2021/07/31 07:53:11;;;;;;;15.85;14.65;;;18.00;88.70;;;;;;5035473;29;20068;-73
2021/07/31 07:55:43;;;;;;;16.35;15.05;;;18.10;89.00;;;;;;5035272;29;20097;-72
2021/07/31 07:58:15;;;;;;;16.77;15.52;;;18.10;89.00;;;;;;5017723;29;20080;-72
2021/07/31 08:00:47;;;;;;;17.90;16.60;;;18.10;88.60;;;;;;5029507;29;20045;-72
2021/07/31 08:03:19;;;;;;;16.70;15.50;;;18.20;89.20;;;;;;5032134;29;20077;-73
2021/07/31 08:05:51;;;;;;;17.75;16.27;;;18.30;88.50;;;;;;5032082;29;20149;-73
2021/07/31 08:08:23;;;;;;;16.95;15.75;;;18.40;87.80;;;;;;5035601;29;20106;-72
2021/07/31 08:10:55;;;;;;;17.58;16.38;;;18.50;87.30;;;;;;5033483;29;20136;-72
2021/07/31 08:13:27;;;;;;;17.20;15.90;;;18.60;87.90;;;;;;5032795;29;20072;-72
2021/07/31 08:15:59;;;;;;;16.98;15.73;;;18.70;86.80;;;;;;5036257;29;20110;-72
2021/07/31 08:18:30;;;;;;;16.55;15.35;;;18.70;86.40;;;;;;5037216;29;20044;-73
2021/07/31 08:21:03;;;;;;;16.90;15.43;;;18.70;86.80;;;;;;5033914;29;20952;-72
2021/07/31 08:23:35;;;;;;;18.13;16.63;;;18.70;86.60;;;;;;5035872;29;20072;-73
2021/07/31 08:26:12;;;;;;;17.15;15.65;;;18.70;86.50;;;;;;5017568;29;20052;-72
2021/07/31 08:28:44;;;;;;;17.20;15.63;;;18.70;85.80;;;;;;5035689;29;20105;-72
2021/07/31 08:31:17;;;;;;;16.85;15.65;;;18.70;86.80;;;;;;5033498;29;20049;-72
2021/07/31 08:33:49;;;;;;;16.15;14.95;;;18.70;86.80;;;;;;5035481;29;20056;-71
2021/07/31 08:36:21;;;;;;;15.90;14.80;;;18.70;86.60;;;;;;5033847;29;20539;-72
2021/07/31 08:38:52;;;;;;;16.63;15.32;;;18.70;86.70;;;;;;5034888;29;20093;-72
2021/07/31 08:41:25;;;;;;;17.17;15.73;;;18.70;87.30;;;;;;5031532;29;20606;-72
2021/07/31 08:43:57;;;;;;;16.58;15.27;;;18.70;87.10;;;;;;5030169;29;20090;-73
2021/07/31 08:46:29;;;;;;;17.05;15.60;;;18.70;87.60;;;;;;5032491;29;20144;-73
2021/07/31 08:49:02;;;;;;;17.27;15.98;;;18.70;87.10;;;;;;5019888;29;21025;-73
2021/07/31 08:51:34;;;;;;;16.92;15.52;;;18.70;87.00;;;;;;5035002;29;20447;-73
2021/07/31 08:54:06;;;;;;;17.05;15.75;;;18.80;86.80;;;;;;5035736;29;20045;-73
2021/07/31 08:56:44;;;;;;;17.23;15.93;;;18.80;86.80;;;;;;5035615;29;20882;-73
2021/07/31 08:59:16;;;;;;;16.33;15.13;;;18.90;86.50;;;;;;5040677;29;20045;-73
2021/07/31 09:01:49;;;;;;;17.17;15.77;;;18.90;86.20;;;;;;5037283;29;20068;-74
2021/07/31 09:04:23;;;;;;;17.17;15.98;;;19.00;85.70;;;;;;5037176;29;20076;-74
2021/07/31 09:06:55;;;;;;;17.77;16.38;;;19.00;85.50;;;;;;5035568;29;20052;-73
2021/07/31 09:09:28;;;;;;;16.40;15.20;;;19.00;86.10;;;;;;5035231;29;20192;-73
2021/07/31 09:12:10;;;;;;;17.02;15.73;;;19.00;86.20;;;;;;5033201;29;20049;-74
2021/07/31 09:14:46;;;;;;;16.73;15.52;;;19.00;86.20;;;;;;5025218;29;20113;-73
2021/07/31 09:17:24;;;;;;;16.92;15.73;;;19.00;86.20;;;;;;5035051;29;21532;-73
2021/07/31 09:19:56;;;;;;;17.92;16.63;;;19.10;85.80;;;;;;5035407;29;20052;-73
2021/07/31 09:22:28;;;;;;;16.88;15.68;;;19.00;86.10;;;;;;5023727;29;20053;-73
2021/07/31 09:25:10;;;;;;;17.00;15.70;;;19.00;85.40;;;;;;5033536;29;20045;-73
2021/07/31 09:27:42;;;;;;;16.70;15.50;;;19.10;86.10;;;;;;5035839;29;20575;-73
2021/07/31 09:30:14;;;;;;;17.20;16.00;;;19.10;85.80;;;;;;5031972;29;20045;-73
2021/07/31 09:32:48;;;;;;;16.23;15.02;;;19.20;85.70;;;;;;5035579;29;20041;-73
2021/07/31 09:35:22;;;;;;;16.98;15.68;;;19.20;84.10;;;;;;5036243;29;20507;-72
2021/07/31 09:37:55;;;;;;;17.23;15.93;;;19.30;83.80;;;;;;5040299;29;20105;-73
2021/07/31 09:40:29;;;;;;;17.70;16.33;;;19.50;83.00;;;;;;5029133;29;20457;-73
2021/07/31 09:43:15;;;;;;;17.85;16.55;;;19.70;84.10;;;;;;5039137;29;20456;-73
2021/07/31 09:45:50;;;;;;;17.60;16.30;;;19.90;83.50;;;;;;5036216;29;20072;-72
2021/07/31 09:48:22;;;;;;;16.63;15.43;;;20.10;83.00;;;;;;5041635;29;20045;-72
2021/07/31 09:50:54;;;;;;;16.63;15.32;;;20.20;78.40;;;;;;5039034;29;20855;-71
2021/07/31 09:53:27;;;;;;;15.95;14.75;;;20.20;80.70;;;;;;5021998;29;20175;-72
2021/07/31 09:56:00;;;;;;;16.55;15.38;;;20.40;76.90;;;;;;5035502;29;20711;-72
2021/07/31 09:58:36;;;;;;;16.52;15.25;;;20.30;77.00;;;;;;5038336;29;20073;-73
2021/07/31 10:01:07;;;;;;;15.52;14.40;;;20.40;78.70;;;;;;5034767;29;20045;-73
2021/07/31 10:03:40;;;;;;;16.40;15.20;;;20.50;79.60;;;;;;5039909;29;20045;-73
2021/07/31 10:06:13;;;;;;;16.70;15.40;;;20.60;78.10;;;;;;5035802;29;20053;-73
2021/07/31 10:08:45;;;;;;;16.42;15.13;;;20.70;78.10;;;;;;5040109;29;20041;-73
2021/07/31 10:11:17;;;;;;;15.93;14.82;;;20.80;77.60;;;;;;5039324;29;20567;-72
2021/07/31 10:13:50;;;;;;;15.70;14.57;;;20.80;76.20;;;;;;5035322;29;20073;-73
2021/07/31 10:16:22;;;;;;;16.58;15.30;;;20.80;76.80;;;;;;5034660;29;20049;-73
2021/07/31 10:19:01;;;;;;;17.25;16.05;;;21.10;78.10;;;;;;5038117;29;20043;-73
2021/07/31 10:21:47;;;;;;;16.52;15.35;;;21.10;75.20;;;;;;5036121;29;20117;-73
2021/07/31 10:24:19;;;;;;;16.13;14.93;;;21.20;75.30;;;;;;5038094;29;20558;-73
2021/07/31 10:27:16;;;;;;;15.98;14.70;;;21.20;76.80;;;;;;5033792;29;20049;-73
2021/07/31 10:29:52;;;;;;;16.45;15.15;;;21.30;76.20;;;;;;5033436;29;20069;-72
2021/07/31 10:32:38;;;;;;;16.55;15.35;;;21.30;76.20;;;;;;5033171;29;20223;-72
2021/07/31 10:35:31;;;;;;;30.08;27.50;;;21.30;75.50;;;;;;5034592;29;20057;-72
2021/07/31 10:38:10;;;;;;;16.23;14.93;;;21.20;75.10;;;;;;5039357;29;20140;-73
2021/07/31 10:40:46;;;;;;;16.90;15.68;;;21.20;75.40;;;;;;5030069;29;20042;-72
2021/07/31 10:43:19;;;;;;;16.77;15.57;;;21.20;76.90;;;;;;5034426;29;20366;-72
2021/07/31 10:46:18;;;;;;;16.13;14.80;;;21.30;74.40;;;;;;5038726;29;20049;-73
2021/07/31 10:48:50;;;;;;;16.35;15.07;;;21.30;76.00;;;;;;5037853;29;20068;-73
2021/07/31 10:51:39;;;;;;;16.05;14.80;;;21.30;75.40;;;;;;5040122;29;21360;-73
2021/07/31 10:54:11;;;;;;;16.67;15.38;;;21.40;75.70;;;;;;5040480;29;20164;-73
2021/07/31 10:56:54;;;;;;;16.40;15.13;;;21.50;70.40;;;;;;5036571;29;20132;-73
2021/07/31 10:59:26;;;;;;;16.20;15.02;;;21.50;74.40;;;;;;5036231;29;20049;-72
2021/07/31 11:02:37;;;;;;;16.48;15.18;;;21.60;74.00;;;;;;5038024;29;20097;-73
2021/07/31 11:05:09;;;;;;;16.30;15.10;;;21.80;75.80;;;;;;5039428;29;20045;-72
2021/07/31 11:07:57;;;;;;;16.35;15.23;;;21.90;75.40;;;;;;5035850;29;20092;-74
2021/07/31 11:10:34;;;;;;;16.48;15.27;;;21.90;74.70;;;;;;5032580;29;20053;-74
2021/07/31 11:13:07;;;;;;;15.90;14.80;;;21.90;73.90;;;;;;5033744;29;20061;-74
2021/07/31 11:16:00;;;;;;;15.82;14.73;;;22.00;74.30;;;;;;5039378;29;20044;-74
2021/07/31 11:18:42;;;;;;;16.02;14.82;;;22.00;74.70;;;;;;5035068;29;20045;-74
2021/07/31 11:21:20;;;;;;;16.08;14.98;;;22.00;75.40;;;;;;5032029;29;20049;-73
2021/07/31 11:24:01;;;;;;;15.93;14.77;;;22.10;73.60;;;;;;5033137;29;20044;-74
2021/07/31 11:26:54;;;;;;;16.10;14.88;;;22.10;70.50;;;;;;5039044;29;20053;-74
2021/07/31 11:29:28;;;;;;;14.98;13.88;;;22.00;73.20;;;;;;5037869;29;20101;-74
2021/07/31 11:32:01;;;;;;;15.00;13.90;;;22.00;71.30;;;;;;5036427;29;20813;-74
2021/07/31 11:34:37;;;;;;;15.48;14.38;;;21.90;73.10;;;;;;5037889;29;20029;-74
2021/07/31 11:37:09;;;;;;;16.10;14.80;;;21.90;69.90;;;;;;5029790;29;20057;-74
2021/07/31 11:39:44;;;;;;;15.73;14.52;;;21.80;72.90;;;;;;5033312;29;20045;-73
2021/07/31 11:42:20;;;;;;;15.30;14.20;;;21.90;72.90;;;;;;5033565;29;20138;-74
2021/07/31 11:45:03;;;;;;;15.48;14.38;;;21.90;73.50;;;;;;5036781;29;20052;-73
2021/07/31 11:47:36;;;;;;;15.23;14.13;;;21.90;74.30;;;;;;5037108;29;20057;-73
2021/07/31 11:50:10;;;;;;;15.82;14.73;;;22.00;73.60;;;;;;5036874;29;20080;-74
2021/07/31 11:52:42;;;;;;;16.00;14.75;;;22.00;73.70;;;;;;5028953;29;20045;-74
2021/07/31 11:55:24;;;;;;;16.70;15.50;;;22.00;72.70;;;;;;5036214;29;20105;-74
2021/07/31 11:57:56;;;;;;;15.70;14.60;;;21.90;73.40;;;;;;5037872;29;20048;-74
2021/07/31 12:00:28;;;;;;;15.63;14.52;;;21.90;72.50;;;;;;5035843;29;20053;-74
2021/07/31 12:03:00;;;;;;;16.20;14.90;;;21.80;72.30;;;;;;5017874;29;20059;-74
2021/07/31 12:05:39;;;;;;;15.60;14.40;;;21.70;71.70;;;;;;5038963;29;20427;-74
2021/07/31 12:08:10;;;;;;;15.07;13.98;;;21.60;73.50;;;;;;5037351;29;20137;-74
2021/07/31 12:10:49;;;;;;;14.75;13.65;;;21.60;72.80;;;;;;5034953;29;20049;-74
2021/07/31 12:13:30;;;;;;;15.25;14.10;;;21.60;73.30;;;;;;5030702;29;20113;-73
2021/07/31 12:16:02;;;;;;;15.00;13.90;;;21.60;70.60;;;;;;5038376;29;20120;-73
2021/07/31 12:18:51;;;;;;;14.82;13.63;;;21.50;73.80;;;;;;5031843;29;20720;-73
2021/07/31 12:21:27;;;;;;;14.93;13.82;;;21.40;72.60;;;;;;5033898;29;20051;-74
2021/07/31 12:23:59;;;;;;;15.00;13.80;;;21.40;72.90;;;;;;5004387;29;20970;-74
2021/07/31 12:26:32;;;;;;;14.85;13.65;;;21.40;72.60;;;;;;5034044;29;20064;-74
2021/07/31 12:29:04;;;;;;;14.88;13.68;;;21.30;71.60;;;;;;5034262;29;20509;-74
2021/07/31 12:31:36;;;;;;;14.50;13.40;;;21.30;73.20;;;;;;5032110;29;20515;-73
2021/07/31 12:34:11;;;;;;;14.18;13.07;;;21.30;73.30;;;;;;5034956;29;20041;-73
2021/07/31 12:36:53;;;;;;;14.38;13.27;;;21.30;72.50;;;;;;5036607;29;20045;-74
2021/07/31 12:39:25;;;;;;;14.48;13.38;;;21.20;73.50;;;;;;5036880;29;20793;-71
2021/07/31 12:41:58;;;;;;;14.43;13.32;;;21.30;73.30;;;;;;5034643;29;20150;-74
2021/07/31 12:44:30;;;;;;;14.05;12.80;;;21.30;73.40;;;;;;5035081;29;20044;-74
2021/07/31 12:47:03;;;;;;;14.18;13.15;;;21.30;73.10;;;;;;5035252;29;20630;-74
2021/07/31 12:49:35;;;;;;;15.05;13.88;;;21.40;73.40;;;;;;5035419;29;20049;-74
2021/07/31 12:52:07;;;;;;;14.88;13.75;;;21.30;71.80;;;;;;5019657;29;20049;-74
2021/07/31 12:54:39;;;;;;;15.10;14.00;;;21.20;71.90;;;;;;5031701;29;20112;-74
2021/07/31 12:57:11;;;;;;;15.07;13.88;;;21.10;73.70;;;;;;5034107;29;20136;-73
2021/07/31 12:59:43;;;;;;;14.68;13.57;;;21.10;72.60;;;;;;5036217;29;20479;-74
2021/07/31 13:02:35;;;;;;;14.85;13.85;;;21.10;72.90;;;;;;5033793;29;20071;-72
2021/07/31 13:05:07;;;;;;;14.80;13.63;;;21.10;73.20;;;;;;5031948;29;20580;-73